Collington, North Carolina
Current Conditions -  °F | °C
As of 12:35 PM on Monday 24 Nov 2014 (Local Time) from KFFA Reporting Station
Scattered Clouds Scattered Clouds  
Wind Chill: 72°   Ceiling: Unl
Heat Index: 72°   Visibility: 10mi
Dew Point: 67°   Wind: 7mph
Humidity: 84%   Direction: 220°SW
Pressure: 29.84"   Gusts: NA
Location:  36.1034°N, 75.7289°W
Report Text: KFFA 241735Z AUTO 22006KT 10SM SCT060 SCT075 SCT085 22/20 A2984 RMK AO2 T02240195
Loading
Personal Weather Stations






























Interactive Weather Map New forecast layout! Learn more

10-Day Weather Forecast

Advertisements
Track Severe Weather on mobile